Time;durP1;ratioP1;P1;durP2;ratioP2;P2;SDS_P1;SDS_P2;PMS_P1;PMS_P2;Temp;Humidity;BMP_temperature;BMP_pressure;BME280_temperature;BME280_humidity;BME280_pressure;Samples;Min_cycle;Max_cycle;Signal;HPM_P1;HPM_P2
2023/01/10 00:00:09;;;;;;;;;;;;;;;26.82;27.58;100494.06;5077358;28;1470;-12
2023/01/10 00:02:35;;;;;;;;;;;;;;;26.94;26.71;100491.72;5060355;28;1000;-12
2023/01/10 00:05:00;;;;;;;;;;;;;;;27.00;27.61;100499.06;5065143;28;1906;-11
2023/01/10 00:07:25;;;;;;;;;;;;;;;26.47;28.11;100494.63;5076956;28;2462;-12
2023/01/10 00:09:50;;;;;;;;;;;;;;;26.33;28.36;100499.81;5067242;28;1013;-12
2023/01/10 00:15:00;;;;;;;;;;;;;;;26.96;27.17;100498.59;5064504;28;1036;-12
2023/01/10 00:17:25;;;;;;;;;;;;;;;27.00;26.93;100496.38;5075899;28;1126;-11
2023/01/10 00:19:50;;;;;;;;;;;;;;;26.85;27.40;100496.38;5064763;28;1186;-12
2023/01/10 00:22:18;;;;;;;;;;;;;;;27.46;26.46;100491.75;5075837;28;1036;-11
2023/01/10 00:24:43;;;;;;;;;;;;;;;27.91;26.01;100488.03;5077074;28;1952;-12
2023/01/10 00:27:11;;;;;;;;;;;;;;;27.24;26.48;100483.63;5059232;28;1198;-12
2023/01/10 00:29:36;;;;;;;;;;;;;;;27.06;26.91;100482.13;5074685;28;1103;-12
2023/01/10 00:32:02;;;;;;;;;;;;;;;27.28;27.07;100479.47;5063245;28;1154;-12
2023/01/10 00:34:27;;;;;;;;;;;;;;;26.22;28.41;100465.19;5076925;28;1206;-12
2023/01/10 00:36:52;;;;;;;;;;;;;;;26.16;28.48;100462.19;5070499;28;1845;-12
2023/01/10 00:39:19;;;;;;;;;;;;;;;26.67;27.80;100467.94;5057100;28;1204;-12
2023/01/10 00:44:28;;;;;;;;;;;;;;;26.94;27.06;100470.13;5063110;28;1918;-12
2023/01/10 00:46:54;;;;;;;;;;;;;;;27.21;27.26;100463.22;5067759;28;1103;-12
2023/01/10 00:49:19;;;;;;;;;;;;;;;27.98;25.69;100456.47;5072440;28;1123;-12
2023/01/10 00:51:44;;;;;;;;;;;;;;;27.33;26.84;100451.91;5076678;28;988;-12
2023/01/10 00:54:10;;;;;;;;;;;;;;;27.26;26.55;100460.78;5074755;28;1134;-12
2023/01/10 00:56:35;;;;;;;;;;;;;;;27.09;27.01;100453.94;5067940;28;1067;-12
2023/01/10 00:59:00;;;;;;;;;;;;;;;27.00;27.11;100453.19;5071109;28;1048;-12
2023/01/10 01:01:26;;;;;;;;;;;;;;;26.73;27.53;100442.06;5067421;28;1048;-12
2023/01/10 01:03:51;;;;;;;;;;;;;;;26.31;28.64;100442.50;5069728;28;1957;-12
2023/01/10 01:06:17;;;;;;;;;;;;;;;26.47;27.98;100440.69;5070106;28;1001;-12
2023/01/10 01:08:42;;;;;;;;;;;;;;;26.92;27.11;100450.59;5059992;28;2455;-12
2023/01/10 01:11:07;;;;;;;;;;;;;;;26.93;27.08;100458.50;5068917;28;1099;-12
2023/01/10 01:13:33;;;;;;;;;;;;;;;26.93;27.49;100445.00;5070448;28;1128;-11
2023/01/10 01:15:58;;;;;;;;;;;;;;;26.67;27.99;100435.56;5068855;28;1092;-12
2023/01/10 01:18:23;;;;;;;;;;;;;;;26.42;28.34;100422.38;5069872;28;884;-12
2023/01/10 01:20:51;;;;;;;;;;;;;;;26.98;27.07;100417.44;5063063;28;1020;-12
2023/01/10 01:23:17;;;;;;;;;;;;;;;26.96;27.13;100404.13;5074805;28;1957;-12
2023/01/10 01:25:42;;;;;;;;;;;;;;;26.92;27.36;100410.94;5063642;28;1028;-12
2023/01/10 01:28:08;;;;;;;;;;;;;;;26.67;27.93;100411.28;5075032;28;988;-11
2023/01/10 01:30:34;;;;;;;;;;;;;;;26.31;28.40;100403.94;5045722;28;848;-12
2023/01/10 01:32:59;;;;;;;;;;;;;;;26.54;27.40;100314.84;5062546;28;1167;-12
2023/01/10 01:35:24;;;;;;;;;;;;;;;27.08;26.89;100414.47;5069080;28;1076;-12
2023/01/10 01:37:49;;;;;;;;;;;;;;;27.01;27.18;100406.25;5069939;28;2410;-12
2023/01/10 01:40:15;;;;;;;;;;;;;;;26.90;27.63;100403.03;5075842;28;1027;-12
2023/01/10 01:42:41;;;;;;;;;;;;;;;26.65;28.00;100405.22;5075079;28;970;-12
2023/01/10 01:45:06;;;;;;;;;;;;;;;26.81;27.63;100404.16;5062924;28;1933;-12
2023/01/10 01:47:32;;;;;;;;;;;;;;;27.02;26.84;100411.53;5062524;28;1183;-12
2023/01/10 01:49:57;;;;;;;;;;;;;;;26.96;27.25;100416.81;5068437;28;1040;-11
2023/01/10 01:52:24;;;;;;;;;;;;;;;27.24;26.92;100422.31;5070147;28;997;-12
2023/01/10 01:54:50;;;;;;;;;;;;;;;27.19;27.20;100413.97;5057062;28;954;-12
2023/01/10 01:57:17;;;;;;;;;;;;;;;27.09;27.09;100408.03;5075193;28;1008;-11
2023/01/10 01:59:43;;;;;;;;;;;;;;;27.14;26.79;100402.91;5046680;28;1167;-12
2023/01/10 02:02:16;;;;;;;;;;;;;;;27.02;26.85;100394.47;5049189;28;1051;-13
2023/01/10 02:04:44;;;;;;;;;;;;;;;27.22;27.08;100401.94;5037104;28;1917;-12
2023/01/10 02:07:09;;;;;;;;;;;;;;;26.49;28.28;100390.91;5041338;28;2297;-12
2023/01/10 02:09:54;;;;;;;;;;;;;;;26.51;27.86;100396.13;5034162;28;1120;-12
2023/01/10 02:12:20;;;;;;;;;;;;;;;26.93;27.23;100404.50;5039832;28;1067;-12
2023/01/10 02:14:46;;;;;;;;;;;;;;;26.99;27.16;100397.53;5037905;28;1006;-11
2023/01/10 02:17:11;;;;;;;;;;;;;;;27.13;26.97;100398.53;5043276;28;1222;-12
2023/01/10 02:19:43;;;;;;;;;;;;;;;26.81;27.80;100387.16;5059565;28;1108;-11
2023/01/10 02:22:18;;;;;;;;;;;;;;;27.62;26.20;100399.63;5041702;28;1085;-12
2023/01/10 02:24:49;;;;;;;;;;;;;;;27.14;26.96;100394.81;5046544;28;1901;-12
2023/01/10 02:27:41;;;;;;;;;;;;;;;26.93;26.91;100400.97;5039627;28;1003;-12
2023/01/10 02:30:09;;;;;;;;;;;;;;;26.72;28.01;100395.38;5030202;28;1174;-12
2023/01/10 02:32:46;;;;;;;;;;;;;;;26.67;27.66;100389.69;5048970;28;1131;-11
2023/01/10 02:35:18;;;;;;;;;;;;;;;26.35;28.39;100389.91;5039275;28;885;-11
2023/01/10 02:38:03;;;;;;;;;;;;;;;26.76;27.51;100388.53;5043676;28;2236;-12
2023/01/10 02:40:35;;;;;;;;;;;;;;;26.89;27.25;100392.44;5029814;28;1033;-12
2023/01/10 02:43:12;;;;;;;;;;;;;;;27.24;27.16;100394.50;5037793;28;1021;-12
2023/01/10 02:45:39;;;;;;;;;;;;;;;26.38;28.34;100386.84;5038036;28;1159;-12
2023/01/10 02:48:04;;;;;;;;;;;;;;;26.67;27.77;100387.00;5040890;28;1198;-11
2023/01/10 02:50:30;;;;;;;;;;;;;;;26.97;26.99;100400.44;5047538;28;1131;-11
2023/01/10 02:52:56;;;;;;;;;;;;;;;26.94;26.95;100381.91;5043638;28;1154;-11
2023/01/10 02:55:21;;;;;;;;;;;;;;;26.88;27.55;100383.50;5040317;28;913;-12
2023/01/10 02:57:58;;;;;;;;;;;;;;;26.33;28.46;100377.63;5038038;28;1141;-12
2023/01/10 03:00:24;;;;;;;;;;;;;;;26.36;28.55;100372.69;5037697;28;1166;-12
2023/01/10 03:03:09;;;;;;;;;;;;;;;26.95;27.48;100371.94;5057803;28;1119;-12
2023/01/10 03:05:34;;;;;;;;;;;;;;;26.96;27.11;100360.94;5044826;28;1100;-12
2023/01/10 03:08:08;;;;;;;;;;;;;;;27.00;26.92;100361.41;5048189;28;2694;-12
2023/01/10 03:10:39;;;;;;;;;;;;;;;27.47;26.85;100366.44;5054795;28;1096;-12
2023/01/10 03:13:06;;;;;;;;;;;;;;;27.31;26.53;100360.28;5040402;28;1144;-12
2023/01/10 03:15:32;;;;;;;;;;;;;;;27.06;26.50;100370.63;5036779;28;1107;-12
2023/01/10 03:17:58;;;;;;;;;;;;;;;27.10;27.07;100367.34;5020909;28;1096;-12
2023/01/10 03:20:24;;;;;;;;;;;;;;;26.18;28.46;100367.66;5025046;28;1132;-11
2023/01/10 03:22:50;;;;;;;;;;;;;;;26.22;28.59;100360.03;5040403;28;1139;-12
2023/01/10 03:25:15;;;;;;;;;;;;;;;27.13;27.37;100358.03;5040206;28;1972;-12
2023/01/10 03:27:40;;;;;;;;;;;;;;;26.97;27.11;100351.84;5028840;28;1029;-12
2023/01/10 03:30:17;;;;;;;;;;;;;;;26.87;27.26;100351.31;5054938;28;1048;-12
2023/01/10 03:32:42;;;;;;;;;;;;;;;27.07;27.19;100329.09;5057976;28;1056;-11
2023/01/10 03:35:08;;;;;;;;;;;;;;;26.51;27.74;100351.09;5057649;28;1175;-11
2023/01/10 03:37:35;;;;;;;;;;;;;;;26.82;27.53;100353.75;5050756;28;2344;-12
2023/01/10 03:40:14;;;;;;;;;;;;;;;26.86;27.05;100357.75;5038694;28;1041;-12
2023/01/10 03:45:32;;;;;;;;;;;;;;;26.74;27.50;100347.41;5032636;28;1910;-12
2023/01/10 03:47:58;;;;;;;;;;;;;;;27.37;26.70;100354.13;5033566;28;1057;-12
2023/01/10 03:50:23;;;;;;;;;;;;;;;26.97;27.09;100345.59;5031234;28;1060;-12
2023/01/10 03:52:49;;;;;;;;;;;;;;;26.91;26.94;100355.28;5026632;28;1045;-12
2023/01/10 03:55:17;;;;;;;;;;;;;;;27.28;26.94;100354.44;5057567;28;866;-12
2023/01/10 03:57:44;;;;;;;;;;;;;;;27.96;25.68;100348.53;5053466;28;1100;-12
2023/01/10 04:00:10;;;;;;;;;;;;;;;27.26;26.60;100338.41;5057587;28;1091;-12
2023/01/10 04:02:35;;;;;;;;;;;;;;;26.92;26.94;100335.38;5060040;28;1321;-12
2023/01/10 04:05:00;;;;;;;;;;;;;;;26.50;27.61;100325.16;5068446;28;1960;-12
2023/01/10 04:07:25;;;;;;;;;;;;;;;26.47;27.92;100308.53;5071344;28;2367;-12
2023/01/10 04:09:51;;;;;;;;;;;;;;;27.09;27.25;100329.75;5077407;28;1206;-12
2023/01/10 04:12:16;;;;;;;;;;;;;;;27.33;26.48;100322.25;5077234;28;1107;-11
2023/01/10 04:14:41;;;;;;;;;;;;;;;27.07;26.65;100323.72;5077008;28;1023;-12
2023/01/10 04:17:07;;;;;;;;;;;;;;;26.93;27.16;100312.75;5064038;28;1035;-12
2023/01/10 04:19:32;;;;;;;;;;;;;;;27.54;26.47;100321.41;5066670;28;897;-12
2023/01/10 04:21:57;;;;;;;;;;;;;;;27.53;26.17;100322.44;5074011;28;1111;-12
2023/01/10 04:24:23;;;;;;;;;;;;;;;27.05;26.62;100321.19;5077304;28;1957;-12
2023/01/10 04:26:48;;;;;;;;;;;;;;;27.21;26.56;100319.28;5076504;28;1067;-12
2023/01/10 04:29:13;;;;;;;;;;;;;;;27.78;25.84;100318.50;5062839;28;1043;-12
2023/01/10 04:31:38;;;;;;;;;;;;;;;28.15;25.42;100315.53;5064327;28;891;-11
2023/01/10 04:34:04;;;;;;;;;;;;;;;27.30;26.41;100320.81;5075487;28;1098;-12
2023/01/10 04:36:30;;;;;;;;;;;;;;;25.93;27.16;100319.41;5069896;28;1012;-12
2023/01/10 04:38:55;;;;;;;;;;;;;;;25.40;28.32;100315.72;5056724;28;2604;-12
2023/01/10 04:41:20;;;;;;;;;;;;;;;25.32;28.15;100313.09;5076698;28;999;-12
2023/01/10 04:43:46;;;;;;;;;;;;;;;25.35;28.01;100309.19;5076330;28;1993;-12
2023/01/10 04:46:11;;;;;;;;;;;;;;;25.15;28.27;100305.16;5070380;28;1060;-12
2023/01/10 04:48:36;;;;;;;;;;;;;;;24.54;28.56;100308.53;5070229;28;1163;-12
2023/01/10 04:51:01;;;;;;;;;;;;;;;24.13;29.51;100306.81;5063276;28;1226;-12
2023/01/10 04:53:27;;;;;;;;;;;;;;;23.67;30.26;100303.75;5075824;28;1091;-12
2023/01/10 04:55:52;;;;;;;;;;;;;;;23.75;30.11;100302.91;5063763;28;1131;-12
2023/01/10 04:58:17;;;;;;;;;;;;;;;23.15;30.84;100313.84;5076620;28;976;-12
2023/01/10 05:00:43;;;;;;;;;;;;;;;23.29;30.96;100298.09;5061326;28;1287;-12
2023/01/10 05:03:08;;;;;;;;;;;;;;;23.36;30.57;100299.06;5064958;28;1166;-12
2023/01/10 05:05:33;;;;;;;;;;;;;;;23.83;29.95;100310.97;5062118;28;1910;-12
2023/01/10 05:07:58;;;;;;;;;;;;;;;24.97;28.58;100308.16;5073908;28;1879;-12
2023/01/10 05:10:24;;;;;;;;;;;;;;;25.63;27.61;100314.84;5074371;28;1143;-12
2023/01/10 05:12:49;;;;;;;;;;;;;;;25.73;27.97;100324.50;5056198;28;1021;-12
2023/01/10 05:15:14;;;;;;;;;;;;;;;26.29;27.59;100315.94;5069449;28;1059;-12
2023/01/10 05:17:40;;;;;;;;;;;;;;;26.09;27.44;100321.06;5056313;28;1000;-12
2023/01/10 05:20:05;;;;;;;;;;;;;;;25.77;27.82;100320.44;5057171;28;1412;-12
2023/01/10 05:22:30;;;;;;;;;;;;;;;25.66;27.93;100317.16;5076273;28;995;-12
2023/01/10 05:24:56;;;;;;;;;;;;;;;26.09;27.87;100320.25;5074692;28;1970;-12
2023/01/10 05:27:21;;;;;;;;;;;;;;;26.47;27.42;100325.56;5056264;28;1080;-12
2023/01/10 05:29:46;;;;;;;;;;;;;;;26.08;27.85;100327.50;5057153;28;1079;-12
2023/01/10 05:32:12;;;;;;;;;;;;;;;26.04;28.89;100318.13;5075581;28;852;-12
2023/01/10 05:34:37;;;;;;;;;;;;;;;25.06;29.85;100315.13;5074634;28;1011;-12
2023/01/10 05:37:02;;;;;;;;;;;;;;;25.03;30.24;100320.88;5060898;28;1955;-11
2023/01/10 05:39:27;;;;;;;;;;;;;;;25.57;29.34;100318.25;5060792;28;993;-11
2023/01/10 05:41:53;;;;;;;;;;;;;;;26.29;28.17;100326.72;5074958;28;1088;-12
2023/01/10 05:44:18;;;;;;;;;;;;;;;26.43;27.91;100326.94;5070909;28;1902;-12
2023/01/10 05:46:43;;;;;;;;;;;;;;;25.50;29.28;100330.75;5073259;28;1198;-12
2023/01/10 05:49:09;;;;;;;;;;;;;;;25.30;29.99;100333.97;5057727;28;1163;-12
2023/01/10 05:51:34;;;;;;;;;;;;;;;26.14;28.48;100334.84;5067901;28;1150;-11
2023/01/10 05:53:59;;;;;;;;;;;;;;;26.30;28.15;100335.66;5075704;28;1217;-11
2023/01/10 05:56:25;;;;;;;;;;;;;;;26.48;28.17;100329.91;5065089;28;853;-12
2023/01/10 05:58:50;;;;;;;;;;;;;;;25.40;29.83;100322.94;5068710;28;1113;-11
2023/01/10 06:01:15;;;;;;;;;;;;;;;25.36;29.85;100321.63;5061673;28;1176;-12
2023/01/10 06:03:41;;;;;;;;;;;;;;;26.31;28.06;100321.16;5075202;28;1964;-11
2023/01/10 06:06:06;;;;;;;;;;;;;;;26.76;27.29;100315.69;5074436;28;1060;-11
2023/01/10 06:08:31;;;;;;;;;;;;;;;26.36;28.01;100317.94;5073214;28;2186;-12
2023/01/10 06:10:57;;;;;;;;;;;;;;;25.44;29.79;100311.63;5074030;28;1102;-12
2023/01/10 06:13:22;;;;;;;;;;;;;;;25.98;29.06;100324.25;5075477;28;996;-12
2023/01/10 06:15:47;;;;;;;;;;;;;;;26.52;28.12;100330.38;5071099;28;1044;-12
2023/01/10 06:18:13;;;;;;;;;;;;;;;26.73;27.90;100324.16;5067622;28;1140;-11
2023/01/10 06:20:39;;;;;;;;;;;;;;;25.51;29.86;100327.88;5065728;28;1047;-11
2023/01/10 06:23:04;;;;;;;;;;;;;;;25.31;29.98;100319.47;5062653;28;1127;-12
2023/01/10 06:25:33;;;;;;;;;;;;;;;25.86;29.36;100321.19;5068760;28;1901;-12
2023/01/10 06:27:58;;;;;;;;;;;;;;;26.57;27.51;100325.25;5062488;28;1093;-12
2023/01/10 06:30:23;;;;;;;;;;;;;;;26.66;27.15;100334.03;5061274;28;1029;-12
2023/01/10 06:32:48;;;;;;;;;;;;;;;25.59;29.05;100316.19;5067752;28;1065;-12
2023/01/10 06:35:14;;;;;;;;;;;;;;;25.30;30.19;100339.34;5057160;28;1131;-11
2023/01/10 06:37:39;;;;;;;;;;;;;;;24.62;29.89;100203.63;5064873;28;1812;-11
2023/01/10 06:40:05;;;;;;;;;;;;;;;26.31;28.90;100339.22;5074583;28;1012;-11
2023/01/10 06:42:30;;;;;;;;;;;;;;;26.87;28.03;100329.72;5060591;28;1048;-11
2023/01/10 06:44:55;;;;;;;;;;;;;;;26.63;28.02;100331.72;5063490;28;1910;-11
2023/01/10 06:47:21;;;;;;;;;;;;;;;25.64;29.45;100331.84;5061811;28;1095;-11
2023/01/10 06:49:46;;;;;;;;;;;;;;;25.70;29.90;100336.50;5067113;28;1096;-12
2023/01/10 06:52:11;;;;;;;;;;;;;;;26.58;28.47;100343.09;5061260;28;1015;-12
2023/01/10 06:54:36;;;;;;;;;;;;;;;26.87;28.13;100327.03;5059216;28;1196;-11
2023/01/10 06:57:02;;;;;;;;;;;;;;;26.48;28.58;100351.47;5075220;28;870;-12
2023/01/10 06:59:27;;;;;;;;;;;;;;;25.43;30.50;100344.94;5064964;28;1156;-12
2023/01/10 07:01:52;;;;;;;;;;;;;;;25.86;30.09;100348.97;5066463;28;1210;-11
2023/01/10 07:04:17;;;;;;;;;;;;;;;26.58;29.21;100369.22;5070585;28;1921;-11
2023/01/10 07:06:43;;;;;;;;;;;;;;;27.03;28.67;100371.84;5066761;28;1288;-12
2023/01/10 07:09:08;;;;;;;;;;;;;;;26.70;28.96;100367.72;5062932;28;2152;-11
2023/01/10 07:11:34;;;;;;;;;;;;;;;25.69;30.50;100361.78;5063897;28;1278;-11
2023/01/10 07:13:59;;;;;;;;;;;;;;;26.39;29.26;100363.41;5068045;28;1084;-12
2023/01/10 07:16:25;;;;;;;;;;;;;;;26.95;28.40;100359.28;5066914;28;1203;-12
2023/01/10 07:18:50;;;;;;;;;;;;;;;27.17;28.21;100367.44;5058952;28;965;-12
2023/01/10 07:21:17;;;;;;;;;;;;;;;26.23;29.36;100364.41;5066764;28;1454;-12
2023/01/10 07:23:42;;;;;;;;;;;;;;;25.70;30.79;100365.28;5065209;28;1898;-12
2023/01/10 07:26:08;;;;;;;;;;;;;;;25.77;30.83;100363.53;5073941;28;1054;-12
2023/01/10 07:28:33;;;;;;;;;;;;;;;26.63;28.95;100364.94;5068297;28;1184;-12
2023/01/10 07:30:59;;;;;;;;;;;;;;;26.98;28.23;100358.06;5064643;28;1369;-12
2023/01/10 07:33:25;;;;;;;;;;;;;;;26.16;29.54;100356.22;5063435;28;1239;-12
2023/01/10 07:35:50;;;;;;;;;;;;;;;25.84;30.69;100347.47;5057748;28;1027;-12
2023/01/10 07:38:15;;;;;;;;;;;;;;;25.96;29.69;100347.88;5063428;28;1804;-12
2023/01/10 07:40:40;;;;;;;;;;;;;;;26.73;27.49;100353.00;5077801;28;1016;-12
2023/01/10 07:43:06;;;;;;;;;;;;;;;26.92;27.55;100346.19;5063515;28;1135;-12
2023/01/10 07:45:31;;;;;;;;;;;;;;;26.72;27.95;100352.19;5076882;28;1968;-12
2023/01/10 07:47:57;;;;;;;;;;;;;;;25.94;29.31;100345.38;5064114;28;1158;-12
2023/01/10 07:50:22;;;;;;;;;;;;;;;26.40;28.77;100336.25;5077459;28;1023;-12
2023/01/10 07:52:47;;;;;;;;;;;;;;;26.97;27.83;100327.53;5062551;28;999;-12
2023/01/10 07:55:13;;;;;;;;;;;;;;;27.02;27.47;100333.22;5065455;28;1088;-12
2023/01/10 07:57:38;;;;;;;;;;;;;;;25.88;29.22;100330.75;5075216;28;881;-12
2023/01/10 08:00:04;;;;;;;;;;;;;;;25.72;29.58;100333.63;5065588;28;1150;-11
2023/01/10 08:02:29;;;;;;;;;;;;;;;26.23;28.99;100332.03;5064507;28;1080;-12
2023/01/10 08:04:54;;;;;;;;;;;;;;;26.87;27.15;100327.88;5077044;28;1922;-12
2023/01/10 08:07:19;;;;;;;;;;;;;;;27.05;27.27;100323.06;5061022;28;1919;-12
2023/01/10 08:09:45;;;;;;;;;;;;;;;26.00;28.95;100323.06;5066422;28;857;-12
2023/01/10 08:12:10;;;;;;;;;;;;;;;25.79;29.25;100334.56;5062831;28;1053;-12
2023/01/10 08:14:35;;;;;;;;;;;;;;;26.67;28.11;100324.09;5063808;28;1297;-12
2023/01/10 08:17:00;;;;;;;;;;;;;;;26.90;27.47;100318.53;5070388;28;1222;-12
2023/01/10 08:19:26;;;;;;;;;;;;;;;26.88;27.44;100324.13;5058985;28;1314;-12
2023/01/10 08:21:51;;;;;;;;;;;;;;;25.78;29.14;100319.41;5062204;28;1271;-12
2023/01/10 08:24:16;;;;;;;;;;;;;;;25.74;29.35;100316.22;5046720;28;1906;-12
2023/01/10 08:26:42;;;;;;;;;;;;;;;26.48;28.35;100318.28;5062036;28;1298;-12
2023/01/10 08:29:07;;;;;;;;;;;;;;;26.95;27.22;100316.09;5067814;28;1392;-12
2023/01/10 08:31:32;;;;;;;;;;;;;;;26.91;27.19;100320.19;5062248;28;1183;-13
2023/01/10 08:33:57;;;;;;;;;;;;;;;25.83;28.84;100319.69;5064998;28;1255;-13
2023/01/10 08:36:23;;;;;;;;;;;;;;;25.72;29.13;100312.91;5067912;28;1286;-13
2023/01/10 08:38:49;;;;;;;;;;;;;;;26.59;27.75;100327.75;5064989;28;1859;-12
2023/01/10 08:41:15;;;;;;;;;;;;;;;26.88;26.96;100315.19;5066844;28;1258;-12
2023/01/10 08:43:40;;;;;;;;;;;;;;;26.37;27.89;100320.47;5065393;28;1963;-12
2023/01/10 08:46:05;;;;;;;;;;;;;;;25.63;29.23;100308.59;5065323;28;1222;-13
2023/01/10 08:48:31;;;;;;;;;;;;;;;25.91;28.92;100316.06;5065417;28;1171;-12
2023/01/10 08:50:56;;;;;;;;;;;;;;;26.65;27.32;100311.66;5066029;28;1164;-13
2023/01/10 08:53:21;;;;;;;;;;;;;;;26.94;27.00;100313.59;5067859;28;1286;-13
2023/01/10 08:55:47;;;;;;;;;;;;;;;26.42;27.83;100309.09;5068489;28;1247;-12
2023/01/10 08:58:12;;;;;;;;;;;;;;;25.80;28.79;100304.75;5065358;28;1254;-12
2023/01/10 09:00:38;;;;;;;;;;;;;;;26.25;28.36;100303.03;5066377;28;1203;-12
2023/01/10 09:03:04;;;;;;;;;;;;;;;26.89;27.48;100308.78;5062403;28;1140;-12
2023/01/10 09:05:30;;;;;;;;;;;;;;;27.04;27.07;100310.59;5066666;28;1914;-12
2023/01/10 09:07:56;;;;;;;;;;;;;;;26.70;27.20;100308.38;5061663;28;1833;-12
2023/01/10 09:10:22;;;;;;;;;;;;;;;25.78;28.98;100304.09;5068187;28;940;-12
2023/01/10 09:12:53;;;;;;;;;;;;;;;26.68;27.22;100307.72;5056503;28;1104;-12
2023/01/10 09:15:19;;;;;;;;;;;;;;;27.04;26.62;100307.91;5064068;28;1180;-12
2023/01/10 09:17:44;;;;;;;;;;;;;;;27.10;26.46;100313.38;5058673;28;1139;-12
2023/01/10 09:20:09;;;;;;;;;;;;;;;27.07;26.49;100307.50;5063634;28;1671;-12
2023/01/10 09:22:35;;;;;;;;;;;;;;;26.94;26.53;100309.03;5065909;28;1226;-12
2023/01/10 09:25:01;;;;;;;;;;;;;;;26.92;26.84;100294.91;5067106;28;1902;-12
2023/01/10 09:27:26;;;;;;;;;;;;;;;26.93;26.71;100304.66;5064983;28;1269;-12
2023/01/10 09:29:51;;;;;;;;;;;;;;;26.79;27.00;100298.31;5062197;28;1103;-12
2023/01/10 09:32:17;;;;;;;;;;;;;;;26.70;27.05;100292.19;5069074;28;1206;-12
2023/01/10 09:34:42;;;;;;;;;;;;;;;26.72;26.77;100284.75;5070698;28;1149;-12
2023/01/10 09:37:07;;;;;;;;;;;;;;;26.71;27.00;100283.06;5068629;28;1477;-12
2023/01/10 09:39:33;;;;;;;;;;;;;;;26.75;26.94;100273.56;5057065;28;1148;-13
2023/01/10 09:42:04;;;;;;;;;;;;;;;26.82;26.79;100275.47;5076186;28;1004;-12
2023/01/10 09:44:48;;;;;;;;;;;;;;;26.81;26.70;100280.03;5057041;28;1975;-13
2023/01/10 09:47:32;;;;;;;;;;;;;;;26.90;26.70;100272.66;5062168;28;1172;-12
2023/01/10 09:49:57;;;;;;;;;;;;;;;26.90;26.60;100278.06;5069535;28;1254;-12
2023/01/10 09:52:27;;;;;;;;;;;;;;;26.85;26.49;100270.53;5062391;28;1092;-12
2023/01/10 09:54:52;;;;;;;;;;;;;;;27.05;26.51;100264.50;5058667;28;1398;-12
2023/01/10 09:57:18;;;;;;;;;;;;;;;27.28;25.95;100271.53;5044749;28;1128;-12
2023/01/10 09:59:44;;;;;;;;;;;;;;;27.34;26.17;100264.53;5066655;28;1127;-12
2023/01/10 10:02:24;;;;;;;;;;;;;;;27.42;26.09;100260.84;5071082;28;1095;-12
2023/01/10 10:05:09;;;;;;;;;;;;;;;27.81;25.41;100254.03;5064510;28;1905;-12
2023/01/10 10:07:34;;;;;;;;;;;;;;;27.65;25.62;100240.81;5068065;28;1450;-13
2023/01/10 10:09:59;;;;;;;;;;;;;;;27.53;25.66;100244.09;5063027;28;1110;-12
2023/01/10 10:12:25;;;;;;;;;;;;;;;27.43;26.08;100266.03;5076065;28;1131;-13
2023/01/10 10:15:25;;;;;;;;;;;;;;;27.26;26.00;100263.66;5075614;28;1312;-12
2023/01/10 10:17:50;;;;;;;;;;;;;;;25.97;25.05;100269.53;4997592;28;2373;-12
2023/01/10 10:20:25;;;;;;;;;;;;;;;24.39;27.16;100263.56;5045889;28;1944;-12
2023/01/10 10:22:50;;;;;;;;;;;;;;;23.62;27.61;100257.81;5041179;28;1978;-12
2023/01/10 10:25:15;;;;;;;;;;;;;;;23.36;27.86;100256.97;5068202;28;1960;-12
2023/01/10 10:27:59;;;;;;;;;;;;;;;23.26;27.89;100248.25;5062391;28;2332;-12
2023/01/10 10:30:27;;;;;;;;;;;;;;;23.00;29.58;100241.22;5061562;28;2218;-12
2023/01/10 10:32:58;;;;;;;;;;;;;;;22.78;29.52;100245.41;5069403;28;2203;-12
2023/01/10 10:35:53;;;;;;;;;;;;;;;23.27;28.45;100239.22;5062086;28;1112;-12
2023/01/10 10:38:23;;;;;;;;;;;;;;;23.58;28.13;100233.13;5024936;28;1311;-12
2023/01/10 10:40:49;;;;;;;;;;;;;;;25.25;27.09;100231.38;5063351;28;1049;-12
2023/01/10 10:43:20;;;;;;;;;;;;;;;25.76;27.18;100222.59;5050413;28;1214;-12
2023/01/10 10:46:06;;;;;;;;;;;;;;;26.13;26.16;100227.19;5073161;28;1893;-12
2023/01/10 10:48:51;;;;;;;;;;;;;;;26.01;26.45;100227.69;5072048;28;1607;-12
2023/01/10 10:51:18;;;;;;;;;;;;;;;26.13;26.51;100225.34;5041353;28;1154;-12
2023/01/10 10:53:45;;;;;;;;;;;;;;;26.30;26.29;100222.44;5050581;28;1195;-12
2023/01/10 10:56:10;;;;;;;;;;;;;;;25.57;27.31;100223.97;5075546;28;1047;-12
2023/01/10 10:58:37;;;;;;;;;;;;;;;25.17;28.04;100216.13;5049708;28;1076;-11
2023/01/10 11:01:02;;;;;;;;;;;;;;;25.66;27.49;100213.97;5053145;28;1261;-12
2023/01/10 11:03:31;;;;;;;;;;;;;;;26.32;26.96;100200.66;5043123;28;1971;-12
2023/01/10 11:05:56;;;;;;;;;;;;;;;26.60;26.25;100202.63;5043618;28;1456;-12
2023/01/10 11:08:22;;;;;;;;;;;;;;;26.02;27.18;100191.66;5054521;28;1172;-12
2023/01/10 11:10:49;;;;;;;;;;;;;;;25.85;27.89;100192.88;5052139;28;983;-12
2023/01/10 11:13:24;;;;;;;;;;;;;;;26.59;27.00;100187.47;5046988;28;1103;-12
2023/01/10 11:15:50;;;;;;;;;;;;;;;26.75;26.53;100183.66;5050914;28;1234;-12
2023/01/10 11:18:16;;;;;;;;;;;;;;;25.96;27.96;100188.88;5047266;28;1441;-11
2023/01/10 11:20:48;;;;;;;;;;;;;;;25.42;28.90;100192.47;5051436;28;1341;-12
2023/01/10 11:23:23;;;;;;;;;;;;;;;25.77;28.48;100201.91;5046056;28;1179;-12
2023/01/10 11:25:48;;;;;;;;;;;;;;;26.61;27.38;100190.84;5048676;28;1898;-11
2023/01/10 11:28:14;;;;;;;;;;;;;;;26.72;27.04;100190.31;5046214;28;1199;-11
2023/01/10 11:30:39;;;;;;;;;;;;;;;26.41;28.03;100184.19;5046528;28;1183;-12
2023/01/10 11:33:05;;;;;;;;;;;;;;;25.94;28.95;100182.81;5051739;28;1895;-11
2023/01/10 11:35:30;;;;;;;;;;;;;;;26.45;28.18;100176.56;5045975;28;952;-14
2023/01/10 11:37:59;;;;;;;;;;;;;;;26.83;27.29;100185.38;5046335;28;1285;-12
2023/01/10 11:40:25;;;;;;;;;;;;;;;26.84;26.92;100187.88;5048514;28;1187;-11
2023/01/10 11:42:53;;;;;;;;;;;;;;;25.68;29.11;100183.13;5043762;28;1226;-11
2023/01/10 11:45:18;;;;;;;;;;;;;;;25.58;29.44;100187.94;5043138;28;1902;-11
2023/01/10 11:47:47;;;;;;;;;;;;;;;26.34;28.17;100185.16;5055542;28;1019;-11
2023/01/10 11:50:16;;;;;;;;;;;;;;;26.76;27.28;100188.03;5056939;28;992;-12
2023/01/10 11:52:42;;;;;;;;;;;;;;;26.90;27.32;100194.38;5042082;28;1115;-12
2023/01/10 11:55:07;;;;;;;;;;;;;;;25.85;29.18;100195.56;5043781;28;1187;-12
2023/01/10 11:57:33;;;;;;;;;;;;;;;26.78;27.47;100191.38;5055773;28;979;-11
2023/01/10 12:00:00;;;;;;;;;;;;;;;26.90;27.14;100197.09;5038591;28;1152;-12
2023/01/10 12:02:26;;;;;;;;;;;;;;;26.94;27.25;100192.97;5049059;28;1207;-12
2023/01/10 12:04:52;;;;;;;;;;;;;;;25.74;28.79;100191.50;5026275;28;2007;-11
2023/01/10 12:07:20;;;;;;;;;;;;;;;25.29;29.85;100182.34;5025487;28;1156;-11
2023/01/10 12:09:58;;;;;;;;;;;;;;;26.37;28.34;100182.09;5030501;28;1173;-11
2023/01/10 12:12:27;;;;;;;;;;;;;;;26.80;27.50;100183.94;5046852;28;1161;-12
2023/01/10 12:14:59;;;;;;;;;;;;;;;26.83;27.70;100172.75;5045666;28;1192;-12
2023/01/10 12:17:24;;;;;;;;;;;;;;;26.59;28.28;100171.31;5031071;28;1140;-12
2023/01/10 12:19:52;;;;;;;;;;;;;;;26.41;28.55;100180.66;5048367;28;1192;-12
2023/01/10 12:22:17;;;;;;;;;;;;;;;26.92;27.15;100178.84;5049675;28;1215;-12
2023/01/10 12:24:43;;;;;;;;;;;;;;;27.08;27.22;100168.78;5045783;28;1957;-12
2023/01/10 12:27:10;;;;;;;;;;;;;;;26.23;28.74;100172.97;5046510;28;1203;-12
2023/01/10 12:29:39;;;;;;;;;;;;;;;25.37;30.45;100176.06;5020535;28;1244;-12
2023/01/10 12:32:05;;;;;;;;;;;;;;;25.42;30.11;100167.44;5037164;28;1056;-12
2023/01/10 12:34:44;;;;;;;;;;;;;;;26.23;28.98;100165.72;5025513;28;1850;-12
2023/01/10 12:37:17;;;;;;;;;;;;;;;26.86;27.68;100163.44;5038733;28;988;-12
2023/01/10 12:39:47;;;;;;;;;;;;;;;26.92;27.53;100159.94;5047863;28;992;-12
2023/01/10 12:45:25;;;;;;;;;;;;;;;26.06;29.61;100158.91;5056501;28;1961;-11
2023/01/10 12:47:53;;;;;;;;;;;;;;;27.08;27.57;100164.25;5039898;28;1305;-12
2023/01/10 12:50:23;;;;;;;;;;;;;;;27.12;27.56;100165.53;5029342;28;1227;-12
2023/01/10 12:52:51;;;;;;;;;;;;;;;25.32;30.70;100165.00;5027976;28;1290;-12
2023/01/10 12:55:20;;;;;;;;;;;;;;;25.30;30.68;100161.66;5028324;28;1306;-12
2023/01/10 12:57:47;;;;;;;;;;;;;;;26.36;28.70;100164.25;5047412;28;1196;-12